Time;durP1;ratioP1;P1;durP2;ratioP2;P2;SDS_P1;SDS_P2;PMS_P1;PMS_P2;Temp;Humidity;BMP_temperature;BMP_pressure;BME280_temperature;BME280_humidity;BME280_pressure;Samples;Min_cycle;Max_cycle;Signal;HPM_P1;HPM_P2
2022/10/11 00:02:06;;;;;;;15.33;7.67;;;15.10;99.90;;;;;;5033887;28;20444;-76
2022/10/11 00:04:53;;;;;;;9.60;6.30;;;15.00;99.90;;;;;;5039984;28;20476;-75
2022/10/11 00:07:39;;;;;;;15.10;6.40;;;15.00;99.90;;;;;;5032663;28;20982;-76
2022/10/11 00:10:25;;;;;;;9.97;6.13;;;15.00;99.90;;;;;;5027275;28;20482;-77
2022/10/11 00:13:10;;;;;;;17.83;7.53;;;15.10;99.90;;;;;;5038687;28;20445;-75
2022/10/11 00:15:57;;;;;;;14.03;6.83;;;15.00;99.90;;;;;;5030680;28;21043;-77
2022/10/11 00:18:43;;;;;;;22.00;6.57;;;14.90;99.90;;;;;;5032074;28;20451;-76
2022/10/11 00:21:30;;;;;;;19.00;6.30;;;15.00;99.90;;;;;;5033735;28;20448;-75
2022/10/11 00:24:16;;;;;;;12.03;6.80;;;15.00;99.90;;;;;;5035909;28;20431;-75
2022/10/11 00:27:02;;;;;;;17.43;7.73;;;14.90;99.90;;;;;;5034115;28;20450;-76
2022/10/11 00:29:47;;;;;;;15.97;7.87;;;14.90;99.90;;;;;;5029407;28;21302;-77
2022/10/11 00:32:35;;;;;;;10.23;6.73;;;15.00;99.90;;;;;;5033479;28;20844;-76
2022/10/11 00:35:20;;;;;;;12.00;6.90;;;15.00;99.90;;;;;;5041920;28;20421;-76
2022/10/11 00:38:07;;;;;;;13.40;6.00;;;15.00;99.90;;;;;;5040432;28;20434;-77
2022/10/11 00:40:53;;;;;;;14.93;7.70;;;15.00;99.90;;;;;;5031855;28;20503;-77
2022/10/11 00:43:39;;;;;;;11.40;7.20;;;15.00;99.90;;;;;;5044284;28;20426;-77
2022/10/11 00:46:31;;;;;;;19.73;7.83;;;15.00;99.90;;;;;;5037472;28;20538;-77
2022/10/11 00:49:26;;;;;;;9.30;6.37;;;15.00;99.90;;;;;;5028406;28;20965;-77
2022/10/11 00:52:17;;;;;;;16.53;6.57;;;14.90;99.90;;;;;;5043978;28;20440;-77
2022/10/11 00:55:09;;;;;;;13.03;7.80;;;15.00;99.90;;;;;;5033573;28;20428;-77
2022/10/11 00:57:57;;;;;;;11.93;7.30;;;14.90;99.90;;;;;;5037506;28;20856;-75
2022/10/11 01:00:42;;;;;;;15.27;9.00;;;14.90;99.90;;;;;;5043972;28;20406;-77
2022/10/11 01:03:29;;;;;;;14.30;8.10;;;14.90;99.90;;;;;;5038681;28;20427;-77
2022/10/11 01:06:16;;;;;;;12.23;7.80;;;14.80;99.90;;;;;;5037705;28;20484;-77
2022/10/11 01:09:01;;;;;;;14.10;8.63;;;14.70;99.90;;;;;;5025037;28;20524;-76
2022/10/11 01:11:50;;;;;;;13.23;9.67;;;14.60;99.90;;;;;;5027611;28;21048;-77
2022/10/11 01:14:55;;;;;;;16.53;10.53;;;14.70;99.90;;;;;;5038092;28;20427;-77
2022/10/11 01:17:48;;;;;;;24.20;12.60;;;14.80;99.90;;;;;;5044025;28;20426;-77
2022/10/11 01:20:44;;;;;;;13.30;8.90;;;14.80;99.90;;;;;;5026885;28;20444;-77
2022/10/11 01:23:48;;;;;;;16.67;9.27;;;14.80;99.90;;;;;;5037024;28;20801;-76
2022/10/11 01:27:12;;;;;;;12.13;8.60;;;14.80;99.90;;;;;;5036758;28;20809;-77
2022/10/11 01:30:07;;;;;;;17.53;9.33;;;14.70;99.90;;;;;;5030833;28;20450;-77
2022/10/11 01:33:13;;;;;;;12.80;9.10;;;14.60;99.90;;;;;;5027638;28;20423;-77
2022/10/11 01:36:09;;;;;;;24.60;8.60;;;14.70;99.90;;;;;;5037808;28;20475;-77
2022/10/11 01:38:59;;;;;;;16.10;7.90;;;14.70;99.90;;;;;;5030129;28;20499;-76
2022/10/11 01:41:48;;;;;;;14.67;8.37;;;14.80;99.90;;;;;;5036728;28;20422;-76
2022/10/11 01:44:36;;;;;;;15.30;9.93;;;14.80;99.90;;;;;;5038653;28;20492;-76
2022/10/11 01:47:21;;;;;;;11.47;8.70;;;14.80;99.90;;;;;;5034484;28;20525;-77
2022/10/11 01:50:35;;;;;;;17.97;10.60;;;14.80;99.90;;;;;;5031715;28;20979;-77
2022/10/11 01:53:38;;;;;;;18.97;10.10;;;14.80;99.90;;;;;;5041404;28;20452;-76
2022/10/11 01:56:38;;;;;;;21.90;10.70;;;14.80;99.90;;;;;;5031809;28;20579;-77
2022/10/11 01:59:36;;;;;;;18.83;10.30;;;14.70;99.90;;;;;;5032108;28;20554;-77
2022/10/11 02:02:35;;;;;;;16.07;9.70;;;14.70;99.90;;;;;;5038801;28;20464;-77
2022/10/11 02:05:30;;;;;;;18.53;10.87;;;14.70;99.90;;;;;;5036527;28;20431;-77
2022/10/11 02:08:24;;;;;;;15.20;10.90;;;14.70;99.90;;;;;;5033570;28;20432;-76
2022/10/11 02:11:15;;;;;;;17.97;11.30;;;14.70;99.90;;;;;;5037391;28;20554;-77
2022/10/11 02:14:06;;;;;;;17.17;10.60;;;14.70;99.90;;;;;;5035522;28;20476;-77
2022/10/11 02:16:57;;;;;;;13.00;10.00;;;14.70;99.90;;;;;;5037318;28;20450;-77
2022/10/11 02:19:48;;;;;;;17.33;11.07;;;14.80;99.90;;;;;;5036198;28;20442;-78
2022/10/11 02:22:38;;;;;;;19.57;10.07;;;14.80;99.90;;;;;;5038729;28;20460;-77
2022/10/11 02:25:28;;;;;;;16.50;10.53;;;14.90;99.90;;;;;;5033669;28;20487;-77
2022/10/11 02:28:23;;;;;;;24.47;13.60;;;14.90;99.90;;;;;;5030556;28;20422;-75
2022/10/11 02:31:11;;;;;;;25.17;13.03;;;14.90;99.90;;;;;;5043047;28;20418;-77
2022/10/11 02:34:04;;;;;;;23.67;13.97;;;14.90;99.90;;;;;;5038127;28;20451;-77
2022/10/11 02:36:58;;;;;;;25.83;15.17;;;14.90;99.90;;;;;;5030917;28;20915;-76
2022/10/11 02:39:48;;;;;;;29.97;13.43;;;14.90;99.90;;;;;;5031906;28;20476;-77
2022/10/11 02:42:41;;;;;;;22.57;12.90;;;14.80;99.90;;;;;;5034859;28;20435;-77
2022/10/11 02:45:34;;;;;;;20.63;13.13;;;14.70;99.90;;;;;;5039843;28;20905;-77
2022/10/11 02:48:22;;;;;;;13.60;12.20;;;14.80;99.90;;;;;;5030899;28;21039;-76
2022/10/11 02:51:13;;;;;;;31.53;13.13;;;14.70;99.90;;;;;;5039647;28;20451;-76
2022/10/11 02:53:59;;;;;;;19.40;12.47;;;14.80;99.90;;;;;;5031688;28;20419;-75
2022/10/11 02:56:44;;;;;;;18.80;12.50;;;14.70;99.90;;;;;;5033192;28;20413;-77
2022/10/11 02:59:31;;;;;;;17.50;12.03;;;14.70;99.90;;;;;;5062566;22;20596;-75
2022/10/11 03:02:17;;;;;;;30.30;14.63;;;14.70;99.90;;;;;;5070409;28;20909;-74
2022/10/11 03:05:03;;;;;;;16.63;11.83;;;14.60;99.90;;;;;;5070761;28;20436;-75
2022/10/11 03:07:48;;;;;;;21.57;12.00;;;14.50;99.90;;;;;;5066857;28;20576;-75
2022/10/11 03:10:34;;;;;;;21.83;11.37;;;14.40;99.90;;;;;;5065704;28;20833;-75
2022/10/11 03:13:20;;;;;;;17.77;10.73;;;14.50;99.90;;;;;;5069153;28;20450;-75
2022/10/11 03:16:07;;;;;;;19.23;11.03;;;14.30;99.90;;;;;;5072269;28;20922;-75
2022/10/11 03:18:53;;;;;;;18.50;11.40;;;14.40;99.90;;;;;;5060163;28;20442;-75
2022/10/11 03:21:38;;;;;;;20.90;9.67;;;14.60;99.90;;;;;;5067990;28;20454;-75
2022/10/11 03:24:24;;;;;;;16.40;10.10;;;14.50;99.90;;;;;;5072831;28;20417;-74
2022/10/11 03:27:10;;;;;;;14.90;10.57;;;14.50;99.90;;;;;;5069272;28;20950;-74
2022/10/11 03:29:56;;;;;;;15.17;9.63;;;14.50;99.90;;;;;;5068149;28;20441;-75
2022/10/11 03:32:43;;;;;;;20.83;10.53;;;14.40;99.90;;;;;;5071540;28;20446;-75
2022/10/11 03:35:29;;;;;;;17.00;9.53;;;14.30;99.90;;;;;;5062296;28;20436;-75
2022/10/11 03:38:16;;;;;;;14.23;9.60;;;14.30;99.90;;;;;;5066226;28;20425;-75
2022/10/11 03:41:02;;;;;;;14.50;9.87;;;14.20;99.90;;;;;;5067237;28;20437;-75
2022/10/11 03:43:47;;;;;;;13.23;8.70;;;14.20;99.90;;;;;;5071020;28;20440;-75
2022/10/11 03:46:33;;;;;;;16.40;8.53;;;14.30;99.90;;;;;;5068786;28;20475;-75
2022/10/11 03:49:20;;;;;;;17.37;8.90;;;14.20;99.90;;;;;;5066013;28;20451;-75
2022/10/11 03:52:05;;;;;;;13.37;8.60;;;14.20;99.90;;;;;;5069591;28;20803;-74
2022/10/11 03:54:51;;;;;;;17.40;8.00;;;14.10;99.90;;;;;;5071263;28;20804;-75
2022/10/11 03:57:37;;;;;;;21.47;7.07;;;14.10;99.90;;;;;;5061937;28;20446;-75
2022/10/11 04:00:22;;;;;;;10.80;5.93;;;14.10;99.90;;;;;;5062043;28;20551;-75
2022/10/11 04:03:08;;;;;;;9.00;4.60;;;14.00;99.90;;;;;;5063065;28;20414;-75
2022/10/11 04:05:55;;;;;;;9.70;4.80;;;14.00;99.90;;;;;;5066278;28;20952;-74
2022/10/11 04:08:40;;;;;;;15.40;5.33;;;13.90;99.90;;;;;;5070347;28;20432;-74
2022/10/11 04:11:26;;;;;;;7.93;4.53;;;13.80;99.90;;;;;;5067269;28;20523;-75
2022/10/11 04:14:12;;;;;;;17.90;5.20;;;13.80;99.90;;;;;;5067448;28;20417;-75
2022/10/11 04:16:57;;;;;;;11.33;3.50;;;13.60;99.90;;;;;;5066904;28;20975;-75
2022/10/11 04:19:43;;;;;;;9.10;3.17;;;13.70;99.90;;;;;;5061852;28;20509;-75
2022/10/11 04:22:31;;;;;;;12.13;4.00;;;13.70;99.90;;;;;;5070330;28;20429;-75
2022/10/11 04:25:16;;;;;;;11.03;4.23;;;13.60;99.90;;;;;;5067074;28;20605;-75
2022/10/11 04:28:02;;;;;;;10.93;4.57;;;13.50;99.90;;;;;;5066625;28;20621;-75
2022/10/11 04:30:47;;;;;;;8.57;3.57;;;13.40;99.90;;;;;;5064698;28;20490;-74
2022/10/11 04:33:33;;;;;;;15.00;3.90;;;13.40;99.90;;;;;;5062099;28;20464;-75
2022/10/11 04:36:18;;;;;;;9.27;4.17;;;13.30;99.90;;;;;;5065438;28;20576;-75
2022/10/11 04:39:06;;;;;;;9.90;3.30;;;13.30;99.90;;;;;;5061733;28;20812;-74
2022/10/11 04:41:51;;;;;;;12.63;3.47;;;13.30;99.90;;;;;;5069878;28;20439;-75
2022/10/11 04:44:37;;;;;;;10.93;2.90;;;13.30;99.90;;;;;;5068093;28;21125;-75
2022/10/11 04:47:23;;;;;;;13.70;3.90;;;13.20;99.90;;;;;;5066765;28;20437;-75
2022/10/11 04:50:08;;;;;;;11.70;2.90;;;13.20;99.90;;;;;;5066276;28;20830;-75
2022/10/11 04:52:54;;;;;;;12.93;2.93;;;13.10;99.90;;;;;;5070968;28;20426;-75
2022/10/11 04:55:41;;;;;;;7.23;2.63;;;13.10;99.90;;;;;;5061077;28;20679;-75
2022/10/11 04:58:27;;;;;;;12.80;3.10;;;13.10;99.90;;;;;;5068359;28;20424;-74
2022/10/11 05:01:13;;;;;;;14.70;3.00;;;13.10;99.90;;;;;;5067031;28;20515;-75
2022/10/11 05:03:59;;;;;;;14.60;4.10;;;13.10;99.90;;;;;;5069947;28;20450;-74
2022/10/11 05:06:45;;;;;;;11.70;3.17;;;13.00;99.90;;;;;;5065196;28;20441;-75
2022/10/11 05:09:30;;;;;;;8.53;2.57;;;12.90;99.90;;;;;;5068041;28;20453;-75
2022/10/11 05:12:17;;;;;;;11.37;3.40;;;12.80;99.90;;;;;;5067823;28;20408;-75
2022/10/11 05:15:04;;;;;;;13.30;2.87;;;12.80;99.90;;;;;;5059301;28;20447;-76
2022/10/11 05:17:50;;;;;;;9.30;3.60;;;12.90;99.90;;;;;;5069846;28;20446;-75
2022/10/11 05:20:35;;;;;;;3.80;2.30;;;12.80;99.90;;;;;;5068774;28;20478;-75
2022/10/11 05:23:21;;;;;;;9.17;2.70;;;12.80;99.90;;;;;;5070126;28;20420;-74
2022/10/11 05:26:07;;;;;;;5.10;2.50;;;12.70;99.90;;;;;;5060267;28;20802;-75
2022/10/11 05:28:54;;;;;;;10.33;2.47;;;12.40;99.90;;;;;;5065927;28;20443;-74
2022/10/11 05:31:40;;;;;;;17.43;3.57;;;12.40;99.90;;;;;;5069992;28;20417;-74
2022/10/11 05:34:26;;;;;;;12.83;2.30;;;12.40;99.90;;;;;;5059201;28;20442;-74
2022/10/11 05:37:11;;;;;;;13.63;3.83;;;12.40;99.90;;;;;;5066895;28;20409;-74
2022/10/11 05:39:56;;;;;;;6.60;2.80;;;12.30;99.90;;;;;;5069854;28;20523;-75
2022/10/11 05:42:42;;;;;;;9.30;2.90;;;12.20;99.90;;;;;;5065211;28;20589;-75
2022/10/11 05:45:31;;;;;;;9.27;3.40;;;12.20;99.90;;;;;;5067874;28;20443;-75
2022/10/11 05:48:17;;;;;;;13.50;3.37;;;12.20;99.90;;;;;;5070893;28;20525;-75
2022/10/11 05:51:04;;;;;;;11.20;2.70;;;12.20;99.90;;;;;;5069661;28;20445;-74
2022/10/11 05:53:50;;;;;;;11.70;2.60;;;12.20;99.90;;;;;;5063399;28;20536;-75
2022/10/11 05:56:36;;;;;;;17.67;3.47;;;12.20;99.90;;;;;;5070064;28;20433;-75
2022/10/11 05:59:21;;;;;;;11.20;3.20;;;12.30;99.90;;;;;;5055575;28;20422;-75
2022/10/11 06:02:11;;;;;;;8.10;2.70;;;12.30;99.90;;;;;;5063116;28;20447;-75
2022/10/11 06:04:56;;;;;;;14.03;3.10;;;12.40;99.90;;;;;;5051208;28;20394;-75
2022/10/11 06:07:43;;;;;;;18.27;3.90;;;12.40;99.90;;;;;;5069793;28;20449;-74
2022/10/11 06:10:29;;;;;;;15.17;2.63;;;12.40;99.90;;;;;;5070599;28;20441;-75
2022/10/11 06:13:14;;;;;;;15.00;2.67;;;12.30;99.90;;;;;;5068056;28;20506;-75
2022/10/11 06:16:04;;;;;;;11.10;2.57;;;12.40;99.90;;;;;;5066683;28;20436;-75
2022/10/11 06:18:54;;;;;;;6.90;2.50;;;12.40;99.90;;;;;;5071058;28;20552;-75
2022/10/11 06:21:40;;;;;;;11.10;3.30;;;12.40;99.90;;;;;;5068721;28;20433;-75
2022/10/11 06:24:26;;;;;;;10.80;2.47;;;12.30;99.90;;;;;;5070335;28;20917;-75
2022/10/11 06:27:12;;;;;;;19.10;3.20;;;12.40;99.90;;;;;;5070165;28;20458;-75
2022/10/11 06:29:58;;;;;;;17.83;3.00;;;12.30;99.90;;;;;;5064304;28;20465;-74
2022/10/11 06:32:44;;;;;;;14.07;3.00;;;12.30;99.90;;;;;;5059297;28;20421;-75
2022/10/11 06:35:31;;;;;;;16.30;3.20;;;12.30;99.90;;;;;;5070620;28;20586;-74
2022/10/11 06:38:17;;;;;;;10.87;2.90;;;12.30;99.90;;;;;;5070668;28;20446;-74
2022/10/11 06:41:10;;;;;;;19.27;3.80;;;12.40;99.90;;;;;;5066029;28;20470;-75
2022/10/11 06:43:56;;;;;;;7.17;2.40;;;12.40;99.90;;;;;;5070378;28;20483;-76
2022/10/11 06:46:42;;;;;;;16.83;3.30;;;12.40;99.90;;;;;;5069726;28;21051;-75
2022/10/11 06:49:28;;;;;;;6.60;2.60;;;12.40;99.90;;;;;;5070688;28;20425;-75
2022/10/11 06:52:15;;;;;;;11.43;2.13;;;12.40;99.90;;;;;;5065593;28;20408;-75
2022/10/11 06:55:01;;;;;;;11.90;2.20;;;12.40;99.90;;;;;;5070456;28;20762;-75
2022/10/11 06:57:47;;;;;;;10.10;2.70;;;12.50;99.90;;;;;;5054720;28;20468;-75
2022/10/11 07:00:32;;;;;;;15.87;2.67;;;12.50;99.90;;;;;;5069583;28;20500;-75
2022/10/11 07:03:18;;;;;;;16.03;3.20;;;12.50;99.90;;;;;;5067996;28;20626;-75
2022/10/11 07:06:06;;;;;;;7.03;2.00;;;12.60;99.90;;;;;;5068439;28;20445;-75
2022/10/11 07:08:53;;;;;;;14.30;3.23;;;12.50;99.90;;;;;;5074218;28;20487;-74
2022/10/11 07:11:39;;;;;;;6.77;2.20;;;12.60;99.90;;;;;;5070013;28;20449;-75
2022/10/11 07:14:24;;;;;;;12.73;3.40;;;12.60;99.90;;;;;;5070300;28;20424;-75
2022/10/11 07:17:10;;;;;;;18.80;3.07;;;12.60;99.90;;;;;;5073089;28;20451;-74
2022/10/11 07:19:56;;;;;;;9.47;2.43;;;12.60;99.90;;;;;;5064624;28;20440;-75
2022/10/11 07:22:42;;;;;;;13.80;3.40;;;12.60;99.90;;;;;;5066683;28;20447;-75
2022/10/11 07:25:29;;;;;;;11.77;3.37;;;12.50;99.90;;;;;;5072357;28;20445;-75
2022/10/11 07:28:14;;;;;;;10.80;3.13;;;12.50;99.90;;;;;;5073869;28;20511;-74
2022/10/11 07:31:04;;;;;;;15.20;3.30;;;12.50;99.90;;;;;;5073484;28;20478;-75
2022/10/11 07:33:50;;;;;;;13.87;3.63;;;12.50;99.90;;;;;;5071754;28;20434;-75
2022/10/11 07:36:36;;;;;;;15.90;3.90;;;12.60;99.90;;;;;;5073348;28;20435;-75
2022/10/11 07:39:22;;;;;;;15.93;4.07;;;12.60;99.90;;;;;;5072133;28;20421;-75
2022/10/11 07:42:12;;;;;;;13.80;4.70;;;12.60;99.90;;;;;;5071418;28;20447;-75
2022/10/11 07:44:58;;;;;;;16.17;4.60;;;12.70;99.90;;;;;;5067362;28;20401;-75
2022/10/11 07:47:45;;;;;;;11.80;5.30;;;12.70;99.90;;;;;;5072770;28;20816;-75
2022/10/11 07:50:31;;;;;;;14.27;4.40;;;12.70;99.90;;;;;;5072807;28;20464;-75
2022/10/11 07:53:17;;;;;;;13.33;4.40;;;12.70;99.90;;;;;;5070867;28;20887;-74
2022/10/11 07:56:03;;;;;;;18.13;4.83;;;12.80;99.90;;;;;;5053389;28;20423;-75
2022/10/11 07:58:52;;;;;;;15.83;6.10;;;12.80;99.90;;;;;;5070641;28;20783;-75
2022/10/11 08:01:37;;;;;;;17.90;5.13;;;12.80;99.90;;;;;;5072098;28;20425;-75
2022/10/11 08:04:23;;;;;;;15.57;4.53;;;12.70;99.90;;;;;;5071234;28;20409;-75
2022/10/11 08:07:09;;;;;;;15.50;4.80;;;12.80;99.90;;;;;;5072152;28;20532;-75
2022/10/11 08:09:54;;;;;;;16.20;3.80;;;12.80;99.90;;;;;;5053203;28;20406;-75
2022/10/11 08:12:40;;;;;;;12.07;3.93;;;12.80;99.90;;;;;;5062468;28;20568;-75
2022/10/11 08:15:29;;;;;;;17.40;3.97;;;12.80;99.90;;;;;;5071697;28;20410;-74
2022/10/11 08:18:15;;;;;;;8.10;2.40;;;12.80;99.90;;;;;;5072400;28;21040;-75
2022/10/11 08:21:05;;;;;;;11.37;3.30;;;12.90;99.90;;;;;;5070468;28;21049;-74
2022/10/11 08:23:51;;;;;;;20.00;3.40;;;13.00;99.90;;;;;;5068131;28;20401;-76
2022/10/11 08:26:36;;;;;;;9.80;2.60;;;13.10;99.90;;;;;;5071930;28;20834;-75
2022/10/11 08:29:22;;;;;;;11.10;2.53;;;13.10;99.90;;;;;;5071419;28;20470;-75
2022/10/11 08:32:11;;;;;;;7.10;2.20;;;13.10;99.90;;;;;;5069853;28;20447;-75
2022/10/11 08:34:56;;;;;;;15.27;3.10;;;13.20;99.90;;;;;;5064744;28;20434;-75
2022/10/11 08:37:42;;;;;;;10.30;3.13;;;13.40;99.90;;;;;;5072672;28;20409;-75
2022/10/11 08:40:27;;;;;;;12.60;2.60;;;13.50;99.90;;;;;;5070434;28;20483;-75
2022/10/11 08:43:21;;;;;;;13.30;2.53;;;13.60;99.90;;;;;;5069915;28;20454;-75
2022/10/11 08:46:08;;;;;;;6.43;2.10;;;13.70;99.90;;;;;;5067439;28;20396;-74
2022/10/11 08:48:55;;;;;;;13.03;4.00;;;13.70;99.90;;;;;;5057262;28;20473;-75
2022/10/11 08:51:45;;;;;;;8.60;2.53;;;13.80;99.90;;;;;;5068914;28;20700;-74
2022/10/11 08:54:38;;;;;;;17.40;2.97;;;13.80;99.90;;;;;;5068457;28;20437;-74
2022/10/11 08:57:27;;;;;;;8.57;2.23;;;13.70;99.90;;;;;;5070153;28;20555;-74
2022/10/11 09:00:17;;;;;;;12.80;2.63;;;13.70;99.90;;;;;;5079703;22;20989;-76
2022/10/11 09:03:11;;;;;;;25.00;3.50;;;13.90;99.90;;;;;;5049643;28;20496;-76
2022/10/11 09:06:08;;;;;;;13.07;2.43;;;14.00;99.90;;;;;;5053979;28;20502;-76
2022/10/11 09:09:12;;;;;;;8.50;2.50;;;14.20;99.90;;;;;;5059632;28;20453;-75
2022/10/11 09:12:08;;;;;;;13.23;3.03;;;14.40;99.90;;;;;;5029288;28;20494;-76
2022/10/11 09:15:24;;;;;;;13.80;2.70;;;14.50;99.90;;;;;;5039944;28;20920;-75
2022/10/11 09:18:22;;;;;;;9.47;3.10;;;14.50;99.90;;;;;;5039214;28;20441;-76
2022/10/11 09:21:22;;;;;;;13.33;3.40;;;14.60;99.90;;;;;;5016800;28;20550;-76
2022/10/11 09:24:25;;;;;;;13.67;3.50;;;14.70;99.90;;;;;;5033345;28;20815;-76
2022/10/11 09:27:19;;;;;;;10.57;3.70;;;14.70;99.90;;;;;;5022235;28;20403;-75
2022/10/11 09:30:09;;;;;;;8.87;2.97;;;14.80;99.90;;;;;;5029129;28;21110;-76
2022/10/11 09:33:03;;;;;;;17.20;3.83;;;14.70;99.90;;;;;;5026967;28;20472;-76
2022/10/11 09:35:51;;;;;;;17.60;4.33;;;14.60;99.90;;;;;;5025181;28;20826;-76
2022/10/11 09:38:45;;;;;;;8.60;2.80;;;14.50;99.90;;;;;;5029039;28;20452;-76
2022/10/11 09:41:38;;;;;;;8.37;3.20;;;14.50;99.90;;;;;;5025516;28;20469;-76
2022/10/11 09:44:26;;;;;;;13.17;3.03;;;14.50;99.90;;;;;;5028667;28;20707;-76
2022/10/11 09:47:15;;;;;;;6.90;2.50;;;14.50;99.90;;;;;;5024774;28;20432;-76
2022/10/11 09:50:03;;;;;;;9.63;2.80;;;14.70;99.90;;;;;;5025258;28;20543;-76
2022/10/11 09:52:49;;;;;;;8.67;2.70;;;14.70;99.90;;;;;;5025585;28;20431;-76
2022/10/11 09:55:40;;;;;;;10.83;2.70;;;14.70;99.90;;;;;;5031023;28;20465;-76
2022/10/11 09:58:29;;;;;;;13.47;3.00;;;14.70;99.90;;;;;;5027973;28;20440;-76
2022/10/11 10:01:25;;;;;;;20.43;6.13;;;14.70;99.90;;;;;;5023802;28;20488;-76
2022/10/11 10:04:12;;;;;;;13.77;3.77;;;14.80;99.90;;;;;;5027541;28;20432;-77
2022/10/11 10:07:12;;;;;;;9.83;3.07;;;14.80;99.90;;;;;;5028640;28;20800;-76
2022/10/11 10:09:58;;;;;;;8.90;2.93;;;15.00;99.90;;;;;;5027602;28;20434;-76
2022/10/11 10:12:53;;;;;;;6.50;3.00;;;15.10;99.90;;;;;;5028453;28;21061;-76
2022/10/11 10:15:46;;;;;;;9.27;3.43;;;15.20;99.90;;;;;;5029283;28;20403;-76
2022/10/11 10:18:34;;;;;;;11.40;2.57;;;15.30;99.90;;;;;;5026229;28;20855;-76
2022/10/11 10:21:28;;;;;;;17.77;3.37;;;15.40;99.90;;;;;;5018871;28;20802;-76
2022/10/11 10:24:19;;;;;;;8.60;3.00;;;15.60;99.90;;;;;;5029768;28;20436;-76
2022/10/11 10:27:17;;;;;;;11.77;3.00;;;15.80;99.90;;;;;;5024829;28;20434;-77
2022/10/11 10:30:13;;;;;;;6.10;2.60;;;15.90;99.90;;;;;;5022539;28;20536;-76
2022/10/11 10:33:02;;;;;;;6.27;3.00;;;16.20;99.90;;;;;;5031714;28;20395;-76
2022/10/11 10:35:52;;;;;;;7.50;3.00;;;16.30;99.90;;;;;;5030723;28;20900;-76
2022/10/11 10:38:43;;;;;;;9.27;2.70;;;16.50;99.90;;;;;;5033635;28;20834;-76
2022/10/11 10:41:28;;;;;;;5.10;3.03;;;16.50;99.90;;;;;;5024853;28;20535;-76
2022/10/11 10:44:15;;;;;;;17.47;3.03;;;16.60;99.90;;;;;;5015108;28;20404;-76
2022/10/11 10:47:07;;;;;;;11.03;3.30;;;16.60;99.90;;;;;;5015065;28;20428;-76
2022/10/11 10:50:02;;;;;;;6.90;2.83;;;16.70;99.90;;;;;;5017834;28;20574;-76
2022/10/11 10:52:56;;;;;;;7.93;2.40;;;16.80;99.90;;;;;;5025242;28;20428;-76
2022/10/11 10:55:44;;;;;;;11.53;3.20;;;16.80;99.90;;;;;;5045407;28;20422;-76
2022/10/11 10:58:42;;;;;;;9.23;3.00;;;16.90;99.90;;;;;;5054041;28;20423;-76
2022/10/11 11:01:30;;;;;;;10.50;2.90;;;16.90;99.90;;;;;;5031638;28;20427;-76
2022/10/11 11:04:28;;;;;;;9.77;3.10;;;16.90;99.90;;;;;;5034219;28;20518;-76
2022/10/11 11:07:24;;;;;;;10.03;3.43;;;16.90;99.90;;;;;;5034337;28;20472;-76
2022/10/11 11:10:15;;;;;;;9.73;3.17;;;16.90;99.90;;;;;;5030940;28;20493;-77
2022/10/11 11:13:17;;;;;;;12.73;3.67;;;16.90;99.90;;;;;;5034329;28;20882;-76
2022/10/11 11:16:12;;;;;;;9.90;3.20;;;16.90;99.90;;;;;;5034069;28;20406;-76
2022/10/11 11:19:06;;;;;;;7.93;3.47;;;17.00;99.90;;;;;;5032713;28;20476;-76
2022/10/11 11:21:59;;;;;;;12.07;3.40;;;16.90;99.90;;;;;;5033847;28;20566;-77
2022/10/11 11:24:54;;;;;;;8.93;2.87;;;16.90;99.90;;;;;;5045104;28;20429;-76
2022/10/11 11:27:48;;;;;;;13.37;3.83;;;16.90;99.90;;;;;;5053692;28;20531;-76
2022/10/11 11:30:41;;;;;;;11.80;3.30;;;17.00;99.90;;;;;;5033040;28;20438;-77
2022/10/11 11:33:37;;;;;;;12.27;2.97;;;17.00;99.90;;;;;;5033768;28;20424;-77
2022/10/11 11:36:31;;;;;;;8.03;3.20;;;17.00;99.90;;;;;;5033695;28;20424;-77
2022/10/11 11:39:21;;;;;;;11.90;3.03;;;17.10;99.90;;;;;;5030913;28;20899;-76
2022/10/11 11:42:11;;;;;;;7.13;2.70;;;17.20;99.90;;;;;;5032945;28;20433;-74
2022/10/11 11:45:05;;;;;;;11.73;3.50;;;17.20;99.90;;;;;;5033219;28;20424;-74
2022/10/11 11:47:58;;;;;;;9.83;3.30;;;17.30;99.90;;;;;;5033565;28;20944;-74
2022/10/11 11:50:51;;;;;;;8.80;3.37;;;17.30;99.90;;;;;;5032301;28;20457;-76
2022/10/11 11:53:50;;;;;;;8.30;3.20;;;17.40;99.90;;;;;;5035163;28;20595;-76
2022/10/11 11:56:51;;;;;;;9.83;3.47;;;17.40;99.90;;;;;;5031879;28;20431;-76
2022/10/11 11:59:43;;;;;;;7.97;3.00;;;17.40;99.90;;;;;;5039708;28;20448;-76
2022/10/11 12:02:41;;;;;;;7.47;2.57;;;17.50;99.90;;;;;;5038553;28;20452;-76
2022/10/11 12:05:30;;;;;;;7.50;3.13;;;17.50;99.90;;;;;;5040459;28;20898;-76
2022/10/11 12:08:26;;;;;;;6.83;2.20;;;17.50;99.90;;;;;;5037547;28;20452;-76
2022/10/11 12:11:20;;;;;;;11.30;3.30;;;17.60;99.90;;;;;;5033987;28;21009;-76
2022/10/11 12:14:26;;;;;;;17.97;3.40;;;17.60;99.90;;;;;;5033741;28;20533;-76
2022/10/11 12:17:18;;;;;;;6.87;3.73;;;17.60;99.90;;;;;;5037576;28;20482;-76
2022/10/11 12:20:13;;;;;;;8.70;2.70;;;17.50;99.90;;;;;;5028646;28;20949;-76
2022/10/11 12:23:01;;;;;;;6.70;3.10;;;17.40;99.90;;;;;;5015362;28;20963;-76
2022/10/11 12:26:18;;;;;;;9.47;2.73;;;17.60;99.90;;;;;;5033214;28;20476;-76
2022/10/11 12:29:38;;;;;;;13.47;3.17;;;17.80;99.90;;;;;;5026501;28;21009;-76
2022/10/11 12:32:52;;;;;;;7.20;3.30;;;18.00;99.90;;;;;;5036674;28;20871;-76
2022/10/11 12:35:55;;;;;;;10.13;3.10;;;18.20;99.90;;;;;;5042263;28;20451;-76
2022/10/11 12:38:41;;;;;;;7.57;2.30;;;18.30;99.90;;;;;;5040417;28;20595;-76
2022/10/11 12:41:52;;;;;;;6.20;2.20;;;18.40;99.90;;;;;;5044584;28;20520;-76
2022/10/11 12:44:38;;;;;;;16.70;2.67;;;18.50;99.90;;;;;;5039307;28;20457;-77
2022/10/11 12:47:39;;;;;;;7.00;2.80;;;18.60;99.90;;;;;;5034939;28;20429;-76
2022/10/11 12:50:34;;;;;;;5.03;2.60;;;18.70;99.90;;;;;;5036566;28;20579;-76
2022/10/11 12:53:32;;;;;;;6.43;3.27;;;18.70;98.80;;;;;;5043155;28;20964;-76
2022/10/11 12:56:26;;;;;;;14.63;2.53;;;18.80;98.50;;;;;;5038270;28;20578;-77
2022/10/11 12:59:17;;;;;;;11.07;3.20;;;18.90;98.30;;;;;;5024903;28;20578;-76
2022/10/11 13:02:03;;;;;;;7.03;3.13;;;19.00;96.90;;;;;;5039513;28;20399;-76
2022/10/11 13:04:49;;;;;;;7.00;2.83;;;18.90;97.30;;;;;;5039136;28;20429;-76
2022/10/11 13:07:36;;;;;;;10.77;3.47;;;19.00;96.00;;;;;;5036890;28;20444;-76
2022/10/11 13:10:27;;;;;;;11.43;2.83;;;19.00;94.80;;;;;;5016421;28;20709;-76
2022/10/11 13:13:20;;;;;;;5.60;3.30;;;18.90;93.90;;;;;;5037838;28;20512;-76
2022/10/11 13:16:09;;;;;;;16.03;3.30;;;18.80;94.70;;;;;;5040025;28;20507;-76
2022/10/11 13:18:58;;;;;;;10.30;3.70;;;18.70;94.70;;;;;;5027417;28;20793;-76
2022/10/11 13:21:49;;;;;;;24.67;3.73;;;18.70;94.90;;;;;;5031868;28;20476;-76
2022/10/11 13:24:38;;;;;;;10.57;3.40;;;18.70;95.30;;;;;;5029077;28;20970;-76
2022/10/11 13:27:27;;;;;;;6.67;3.40;;;18.80;94.80;;;;;;5044233;28;20663;-76
2022/10/11 13:30:19;;;;;;;6.87;3.10;;;19.00;94.90;;;;;;5020007;28;21208;-76
2022/10/11 13:33:07;;;;;;;10.87;2.90;;;19.00;94.80;;;;;;5035935;28;20433;-76
2022/10/11 13:35:53;;;;;;;8.33;3.40;;;19.00;91.90;;;;;;5033897;28;20451;-76
2022/10/11 13:38:39;;;;;;;16.80;3.47;;;19.10;90.70;;;;;;5025068;28;20439;-76
2022/10/11 13:41:29;;;;;;;8.90;3.10;;;19.10;90.90;;;;;;5033661;28;20427;-77
2022/10/11 13:44:14;;;;;;;7.10;2.50;;;19.10;90.00;;;;;;5029221;28;20507;-76
2022/10/11 13:47:00;;;;;;;8.77;2.90;;;19.20;87.90;;;;;;5018588;28;20960;-76
2022/10/11 13:49:52;;;;;;;7.40;3.23;;;19.10;88.40;;;;;;5032398;28;20988;-76
2022/10/11 13:52:49;;;;;;;12.37;2.83;;;19.10;87.50;;;;;;5035432;28;20427;-76
2022/10/11 13:55:47;;;;;;;10.50;3.03;;;19.00;89.20;;;;;;5029553;28;20436;-76
2022/10/11 13:58:39;;;;;;;10.27;2.57;;;19.00;90.10;;;;;;5025377;28;20452;-77
2022/10/11 14:01:27;;;;;;;16.90;3.57;;;19.00;86.30;;;;;;5034530;28;20461;-77
2022/10/11 14:04:16;;;;;;;6.97;3.03;;;18.90;89.10;;;;;;5050012;28;20474;-77
2022/10/11 14:07:02;;;;;;;8.00;2.80;;;18.80;92.70;;;;;;5035996;28;20773;-78
2022/10/11 14:09:48;;;;;;;8.03;3.03;;;19.00;91.50;;;;;;5027986;28;21007;-77
2022/10/11 14:12:39;;;;;;;5.90;2.27;;;19.10;90.20;;;;;;5042233;28;20421;-77
2022/10/11 14:15:29;;;;;;;6.80;3.20;;;19.20;84.90;;;;;;5038972;28;20973;-78
2022/10/11 14:18:42;;;;;;;12.80;2.97;;;19.20;86.20;;;;;;5046967;28;20428;-78
2022/10/11 14:21:31;;;;;;;10.00;3.13;;;18.90;86.60;;;;;;5033383;28;20452;-78
2022/10/11 14:24:17;;;;;;;6.60;3.00;;;18.70;87.10;;;;;;5035665;28;20938;-79
2022/10/11 14:27:06;;;;;;;8.87;3.20;;;18.50;89.50;;;;;;5025740;28;20472;-78
2022/10/11 14:29:52;;;;;;;8.27;3.37;;;18.40;91.50;;;;;;5031146;28;20607;-78
2022/10/11 14:32:41;;;;;;;6.00;2.70;;;18.20;91.30;;;;;;5030671;28;20483;-77
2022/10/11 14:35:29;;;;;;;10.03;3.27;;;17.90;91.90;;;;;;5027499;28;20526;-78